Time;durP1;ratioP1;P1;durP2;ratioP2;P2;SDS_P1;SDS_P2;PMS_P1;PMS_P2;Temp;Humidity;BMP_temperature;BMP_pressure;BME280_temperature;BME280_humidity;BME280_pressure;Samples;Min_cycle;Max_cycle;Signal;HPM_P1;HPM_P2
2022/03/16 00:00:40;;;;;;;16.77;13.27;;;7.90;99.90;;;;;;5049877;28;20229;-76
2022/03/16 00:03:07;;;;;;;16.85;13.30;;;7.90;99.90;;;;;;5049428;28;20209;-77
2022/03/16 00:05:33;;;;;;;15.30;12.20;;;7.80;99.90;;;;;;5049248;28;20248;-76
2022/03/16 00:08:00;;;;;;;16.00;12.60;;;7.80;99.90;;;;;;5048824;28;20872;-76
2022/03/16 00:10:28;;;;;;;15.80;13.27;;;7.80;99.90;;;;;;5048965;28;20201;-76
2022/03/16 00:12:55;;;;;;;16.50;13.23;;;7.70;99.90;;;;;;5049179;28;20224;-76
2022/03/16 00:15:24;;;;;;;16.92;13.43;;;7.80;99.90;;;;;;5049156;28;20231;-77
2022/03/16 00:17:51;;;;;;;16.42;13.15;;;7.70;99.90;;;;;;5048785;28;20215;-76
2022/03/16 00:20:17;;;;;;;16.63;14.30;;;7.70;99.90;;;;;;5049026;28;20228;-77
2022/03/16 00:22:44;;;;;;;15.95;13.20;;;7.70;99.90;;;;;;5048799;28;20611;-76
2022/03/16 00:25:12;;;;;;;15.40;13.38;;;7.70;99.90;;;;;;5049247;28;20225;-76
2022/03/16 00:27:41;;;;;;;15.32;12.80;;;7.70;99.90;;;;;;5049635;28;20205;-76
2022/03/16 00:30:08;;;;;;;15.60;13.23;;;7.70;99.90;;;;;;5050193;28;20203;-77
2022/03/16 00:32:35;;;;;;;21.08;15.80;;;7.70;99.90;;;;;;5050323;28;20224;-76
2022/03/16 00:35:02;;;;;;;18.83;15.18;;;7.70;99.90;;;;;;5050224;28;20225;-76
2022/03/16 00:37:29;;;;;;;17.85;15.23;;;7.60;99.90;;;;;;5049661;28;20209;-76
2022/03/16 00:39:55;;;;;;;18.75;14.93;;;7.70;99.90;;;;;;5050410;28;20220;-76
2022/03/16 00:42:22;;;;;;;19.35;15.68;;;7.60;99.90;;;;;;5050225;28;20695;-76
2022/03/16 00:44:50;;;;;;;20.35;16.35;;;7.60;99.90;;;;;;5050189;28;20232;-76
2022/03/16 00:47:17;;;;;;;21.27;16.90;;;7.60;99.90;;;;;;5049684;28;20201;-76
2022/03/16 00:49:44;;;;;;;24.10;17.58;;;7.60;99.90;;;;;;5050126;28;20247;-76
2022/03/16 00:52:10;;;;;;;19.40;16.00;;;7.60;99.90;;;;;;5051879;28;20208;-76
2022/03/16 00:54:37;;;;;;;20.45;16.40;;;7.70;99.90;;;;;;5054092;28;20282;-76
2022/03/16 00:57:04;;;;;;;19.67;16.77;;;7.60;99.90;;;;;;5052926;28;20208;-77
2022/03/16 00:59:31;;;;;;;21.67;15.55;;;7.60;99.90;;;;;;5053477;28;20227;-76
2022/03/16 01:02:00;;;;;;;22.05;17.60;;;7.60;99.90;;;;;;5053580;28;20201;-76
2022/03/16 01:04:26;;;;;;;19.80;15.90;;;7.60;99.90;;;;;;5053656;28;20221;-76
2022/03/16 01:06:53;;;;;;;22.20;17.63;;;7.60;99.90;;;;;;5053576;28;20212;-76
2022/03/16 01:09:20;;;;;;;22.60;17.98;;;7.60;99.90;;;;;;5053087;28;20299;-76
2022/03/16 01:11:47;;;;;;;19.02;16.83;;;7.60;99.90;;;;;;5053842;28;20225;-76
2022/03/16 01:14:14;;;;;;;22.55;17.83;;;7.60;99.90;;;;;;5053692;28;20228;-76
2022/03/16 01:16:40;;;;;;;25.55;18.35;;;7.50;99.90;;;;;;5053448;28;20676;-76
2022/03/16 01:19:09;;;;;;;22.85;17.45;;;7.60;99.90;;;;;;5053697;28;20695;-76
2022/03/16 01:21:35;;;;;;;23.23;18.10;;;7.60;99.90;;;;;;5053739;28;20614;-76
2022/03/16 01:24:02;;;;;;;23.42;18.85;;;7.60;99.90;;;;;;5053693;28;20687;-76
2022/03/16 01:26:29;;;;;;;24.85;19.48;;;7.60;99.90;;;;;;5053640;28;20206;-76
2022/03/16 01:28:56;;;;;;;26.17;19.75;;;7.60;99.90;;;;;;5053442;28;20205;-76
2022/03/16 01:31:23;;;;;;;21.55;18.73;;;7.60;99.90;;;;;;5053318;28;20219;-76
2022/03/16 01:33:49;;;;;;;26.63;20.30;;;7.60;99.90;;;;;;5053615;28;20212;-76
2022/03/16 01:36:17;;;;;;;26.63;20.65;;;7.60;99.90;;;;;;5053381;28;20232;-76
2022/03/16 01:38:44;;;;;;;26.65;19.88;;;7.50;99.90;;;;;;5053156;28;20198;-76
2022/03/16 01:41:11;;;;;;;24.75;20.77;;;7.60;99.90;;;;;;5052751;28;20350;-76
2022/03/16 01:43:37;;;;;;;25.38;18.98;;;7.50;99.90;;;;;;5052630;28;20201;-76
2022/03/16 01:46:05;;;;;;;23.90;17.70;;;7.50;99.90;;;;;;5053479;28;20228;-76
2022/03/16 01:48:31;;;;;;;24.13;18.95;;;7.60;99.90;;;;;;5052842;28;20305;-76
2022/03/16 01:50:58;;;;;;;25.27;19.45;;;7.50;99.90;;;;;;5052787;28;20193;-76
2022/03/16 01:53:27;;;;;;;24.63;19.13;;;7.50;99.90;;;;;;5053073;28;20213;-77
2022/03/16 01:55:54;;;;;;;24.85;19.83;;;7.50;99.90;;;;;;5053481;28;20244;-78
2022/03/16 01:58:21;;;;;;;25.88;20.17;;;7.50;99.90;;;;;;5054551;28;20209;-76
2022/03/16 02:00:47;;;;;;;24.80;19.48;;;7.60;99.90;;;;;;5054338;28;20244;-76
2022/03/16 02:03:14;;;;;;;25.27;19.05;;;7.60;99.90;;;;;;5051634;28;20205;-77
2022/03/16 02:05:41;;;;;;;24.35;19.42;;;7.60;99.90;;;;;;5052879;28;20229;-77
2022/03/16 02:08:08;;;;;;;30.25;21.88;;;7.60;99.90;;;;;;5052190;28;20239;-77
2022/03/16 02:10:36;;;;;;;26.65;20.80;;;7.60;99.90;;;;;;5052918;28;20232;-77
2022/03/16 02:13:03;;;;;;;23.20;19.45;;;7.60;99.90;;;;;;5052788;28;20212;-77
2022/03/16 02:15:30;;;;;;;26.83;19.63;;;7.60;99.90;;;;;;5052470;28;20302;-77
2022/03/16 02:17:57;;;;;;;28.73;21.00;;;7.60;99.90;;;;;;5052194;28;20200;-77
2022/03/16 02:20:24;;;;;;;27.63;20.85;;;7.60;99.90;;;;;;5052504;28;20225;-77
2022/03/16 02:22:54;;;;;;;28.45;21.35;;;7.60;99.90;;;;;;5052780;28;20209;-78
2022/03/16 02:25:21;;;;;;;26.73;20.63;;;7.60;99.90;;;;;;5052651;28;20646;-78
2022/03/16 02:27:48;;;;;;;29.35;21.20;;;7.60;99.90;;;;;;5052070;28;20200;-77
2022/03/16 02:30:15;;;;;;;29.23;21.15;;;7.50;99.90;;;;;;5052284;28;20579;-77
2022/03/16 02:32:42;;;;;;;26.63;21.20;;;7.50;99.90;;;;;;5052152;28;20665;-77
2022/03/16 02:35:09;;;;;;;24.23;19.42;;;7.50;99.90;;;;;;5052107;28;20217;-77
2022/03/16 02:37:37;;;;;;;26.45;21.20;;;7.40;99.90;;;;;;5051759;28;20209;-77
2022/03/16 02:40:08;;;;;;;28.60;22.23;;;7.40;99.90;;;;;;5052289;28;20302;-77
2022/03/16 02:42:34;;;;;;;30.42;21.83;;;7.40;99.90;;;;;;5052543;28;20210;-77
2022/03/16 02:45:01;;;;;;;26.80;21.17;;;7.40;99.90;;;;;;5052104;28;20845;-77
2022/03/16 02:47:28;;;;;;;36.35;23.20;;;7.40;99.90;;;;;;5051400;28;20197;-77
2022/03/16 02:49:55;;;;;;;29.17;21.52;;;7.40;99.90;;;;;;5052291;28;20228;-77
2022/03/16 02:52:23;;;;;;;31.40;21.42;;;7.40;99.90;;;;;;5051732;28;20216;-77
2022/03/16 02:54:49;;;;;;;28.27;20.90;;;7.40;99.90;;;;;;5051931;28;20279;-77
2022/03/16 02:57:17;;;;;;;28.60;21.25;;;7.50;99.90;;;;;;5051312;28;20200;-78
2022/03/16 02:59:44;;;;;;;28.33;20.35;;;7.50;99.90;;;;;;5051748;28;20205;-78
2022/03/16 03:02:11;;;;;;;28.50;21.10;;;7.50;99.90;;;;;;5051643;28;20229;-77
2022/03/16 03:04:38;;;;;;;20.58;16.50;;;7.60;99.90;;;;;;5051744;28;20221;-77
2022/03/16 03:07:07;;;;;;;23.10;17.67;;;7.60;99.90;;;;;;5051211;28;20204;-77
2022/03/16 03:09:35;;;;;;;21.90;17.23;;;7.50;99.90;;;;;;5051512;28;20266;-77
2022/03/16 03:12:02;;;;;;;21.75;16.30;;;7.50;99.90;;;;;;5051935;28;20199;-76
2022/03/16 03:14:31;;;;;;;22.80;17.15;;;7.50;99.90;;;;;;5051292;28;20240;-77
2022/03/16 03:16:57;;;;;;;24.63;19.27;;;7.50;99.90;;;;;;5051086;28;20719;-77
2022/03/16 03:19:24;;;;;;;23.35;18.92;;;7.50;99.90;;;;;;5051329;28;20216;-77
2022/03/16 03:21:51;;;;;;;29.00;21.20;;;7.50;99.90;;;;;;5051289;28;20228;-77
2022/03/16 03:24:18;;;;;;;27.02;20.55;;;7.60;99.90;;;;;;5051189;28;20232;-77
2022/03/16 03:26:44;;;;;;;25.35;20.08;;;7.60;99.90;;;;;;5050764;28;20590;-77
2022/03/16 03:29:11;;;;;;;27.10;20.48;;;7.60;99.90;;;;;;5051619;28;20232;-77
2022/03/16 03:31:39;;;;;;;29.98;20.98;;;7.50;99.90;;;;;;5052076;28;20220;-77
2022/03/16 03:34:06;;;;;;;29.23;20.45;;;7.50;99.90;;;;;;5051654;28;20205;-77
2022/03/16 03:36:33;;;;;;;29.15;21.27;;;7.40;99.90;;;;;;5052147;28;20558;-78
2022/03/16 03:39:00;;;;;;;29.63;22.88;;;7.50;99.90;;;;;;5051694;28;20687;-77
2022/03/16 03:41:27;;;;;;;27.13;21.10;;;7.50;99.90;;;;;;5051808;28;20233;-77
2022/03/16 03:43:53;;;;;;;29.67;21.45;;;7.40;99.90;;;;;;5051798;28;20197;-77
2022/03/16 03:46:20;;;;;;;31.60;22.95;;;7.50;99.90;;;;;;5051560;28;20205;-77
2022/03/16 03:48:48;;;;;;;33.30;23.95;;;7.50;99.90;;;;;;5050986;28;20204;-77
2022/03/16 03:51:15;;;;;;;27.63;21.95;;;7.50;99.90;;;;;;5051798;28;20661;-77
2022/03/16 03:53:41;;;;;;;31.40;22.30;;;7.60;99.90;;;;;;5053749;28;20204;-77
2022/03/16 03:56:08;;;;;;;31.48;22.33;;;7.60;99.90;;;;;;5052740;28;20221;-77
2022/03/16 03:58:35;;;;;;;31.02;23.40;;;7.50;99.90;;;;;;5051306;28;20204;-77
2022/03/16 04:01:03;;;;;;;31.00;22.38;;;7.50;99.90;;;;;;5051948;28;20320;-77
2022/03/16 04:03:30;;;;;;;32.05;21.98;;;7.50;99.90;;;;;;5051923;28;20557;-77
2022/03/16 04:05:59;;;;;;;32.13;24.13;;;7.40;99.90;;;;;;5051270;28;20216;-77
2022/03/16 04:10:54;;;;;;;29.83;22.10;;;7.50;99.90;;;;;;5009827;28;20226;-79
2022/03/16 04:13:20;;;;;;;32.20;24.67;;;7.50;99.90;;;;;;5011758;28;20199;-78
2022/03/16 04:15:47;;;;;;;33.88;24.30;;;7.40;99.90;;;;;;5011389;28;20230;-78
2022/03/16 04:18:14;;;;;;;31.73;24.17;;;7.50;99.90;;;;;;5011109;28;20202;-78
2022/03/16 04:20:40;;;;;;;32.92;25.20;;;7.50;99.90;;;;;;5011212;28;20613;-78
2022/03/16 04:23:08;;;;;;;30.33;22.63;;;7.50;99.90;;;;;;5011856;28;20202;-78
2022/03/16 04:25:35;;;;;;;31.23;23.65;;;7.50;99.90;;;;;;5010801;28;20709;-77
2022/03/16 04:28:02;;;;;;;33.17;23.35;;;7.50;99.90;;;;;;5009928;28;20206;-78
2022/03/16 04:30:28;;;;;;;35.30;24.33;;;7.50;99.90;;;;;;5010980;28;20592;-78
2022/03/16 04:32:55;;;;;;;32.53;25.13;;;7.50;99.90;;;;;;5009054;28;20199;-77
2022/03/16 04:35:22;;;;;;;35.97;25.70;;;7.50;99.90;;;;;;5010402;28;20466;-77
2022/03/16 04:37:49;;;;;;;35.05;24.42;;;7.50;99.90;;;;;;5008035;28;20207;-76
2022/03/16 04:40:17;;;;;;;35.70;24.20;;;7.50;99.90;;;;;;5014028;28;20202;-78
2022/03/16 04:42:44;;;;;;;33.60;25.50;;;7.50;99.90;;;;;;5004289;28;20276;-77
2022/03/16 04:45:12;;;;;;;34.50;25.38;;;7.60;99.90;;;;;;5001345;28;20218;-78
2022/03/16 04:47:39;;;;;;;37.90;26.17;;;7.50;99.90;;;;;;4998806;28;20195;-78
2022/03/16 04:50:07;;;;;;;33.90;25.38;;;7.60;99.90;;;;;;5002332;28;20195;-78
2022/03/16 04:52:42;;;;;;;39.40;26.35;;;7.50;99.90;;;;;;5005183;28;20658;-76
2022/03/16 04:55:09;;;;;;;40.05;27.35;;;7.50;99.90;;;;;;5011082;28;20218;-78
2022/03/16 04:57:37;;;;;;;36.08;27.60;;;7.50;99.90;;;;;;5010273;28;20206;-76
2022/03/16 05:00:06;;;;;;;50.28;29.80;;;7.50;99.90;;;;;;5010550;28;20190;-77
2022/03/16 05:02:32;;;;;;;42.85;29.02;;;7.50;99.90;;;;;;5010533;28;20218;-78
2022/03/16 05:04:59;;;;;;;43.85;28.95;;;7.50;99.90;;;;;;5010066;28;20297;-77
2022/03/16 05:07:26;;;;;;;44.22;29.40;;;7.50;99.90;;;;;;5011288;28;20286;-78
2022/03/16 05:09:53;;;;;;;44.78;28.52;;;7.50;99.90;;;;;;5010736;28;20198;-78
2022/03/16 05:12:20;;;;;;;41.90;27.17;;;7.50;99.90;;;;;;5010833;28;20206;-78
2022/03/16 05:14:48;;;;;;;41.33;29.60;;;7.50;99.90;;;;;;5000045;28;20215;-78
2022/03/16 05:17:14;;;;;;;44.88;31.75;;;7.40;99.90;;;;;;4992545;28;20203;-78
2022/03/16 05:19:41;;;;;;;43.20;30.58;;;7.40;99.90;;;;;;5011050;28;20210;-74
2022/03/16 05:22:08;;;;;;;49.22;32.45;;;7.40;99.90;;;;;;5009946;28;20459;-77
2022/03/16 05:24:35;;;;;;;45.55;32.28;;;7.40;99.90;;;;;;5010017;28;20725;-76
2022/03/16 05:27:02;;;;;;;44.22;30.80;;;7.40;99.90;;;;;;5009908;28;20210;-76
2022/03/16 05:29:29;;;;;;;46.00;31.35;;;7.40;99.90;;;;;;5009186;28;20261;-76
2022/03/16 05:31:57;;;;;;;39.78;27.95;;;7.40;99.90;;;;;;5010098;28;20202;-76
2022/03/16 05:34:24;;;;;;;44.50;30.38;;;7.40;99.90;;;;;;5008522;28;20716;-77
2022/03/16 05:36:50;;;;;;;47.17;30.50;;;7.40;99.90;;;;;;5009692;28;20217;-76
2022/03/16 05:39:17;;;;;;;46.53;29.25;;;7.40;99.90;;;;;;5011949;28;20209;-76
2022/03/16 05:41:44;;;;;;;47.60;29.08;;;7.40;99.90;;;;;;5013561;28;20221;-76
2022/03/16 05:44:11;;;;;;;46.67;30.13;;;7.40;99.90;;;;;;5013552;28;20205;-76
2022/03/16 05:46:37;;;;;;;44.58;28.98;;;7.40;99.90;;;;;;5013302;28;20577;-76
2022/03/16 05:49:05;;;;;;;45.30;29.23;;;7.40;99.90;;;;;;5014344;28;20214;-75
2022/03/16 05:51:32;;;;;;;43.22;29.55;;;7.50;99.90;;;;;;5013450;28;20206;-76
2022/03/16 05:53:59;;;;;;;43.85;27.80;;;7.50;99.90;;;;;;5013492;28;20202;-76
2022/03/16 05:56:26;;;;;;;45.00;27.48;;;7.50;99.90;;;;;;5013269;28;20203;-76
2022/03/16 05:58:52;;;;;;;43.92;28.52;;;7.60;99.90;;;;;;5013092;28;20666;-76
2022/03/16 06:01:19;;;;;;;41.03;27.90;;;7.60;99.90;;;;;;5013410;28;20226;-76
2022/03/16 06:03:46;;;;;;;42.08;28.27;;;7.60;99.90;;;;;;5013119;28;20206;-76
2022/03/16 06:06:15;;;;;;;42.40;29.30;;;7.60;99.90;;;;;;5013328;28;20598;-76
2022/03/16 06:08:42;;;;;;;40.70;26.00;;;7.60;99.90;;;;;;5012386;28;20234;-76
2022/03/16 06:11:09;;;;;;;42.22;28.25;;;7.60;99.90;;;;;;5013308;28;20202;-75
2022/03/16 06:13:35;;;;;;;39.55;27.35;;;7.50;99.90;;;;;;5012982;28;20202;-75
2022/03/16 06:16:03;;;;;;;47.03;30.20;;;7.50;99.90;;;;;;5013074;28;20702;-75
2022/03/16 06:18:30;;;;;;;41.05;27.92;;;7.60;99.90;;;;;;5012363;28;20218;-75
2022/03/16 06:20:57;;;;;;;38.65;25.45;;;7.60;99.90;;;;;;5013098;28;20210;-76
2022/03/16 06:23:25;;;;;;;39.28;26.77;;;7.60;99.90;;;;;;5012846;28;20222;-77
2022/03/16 06:25:51;;;;;;;38.92;27.23;;;7.70;99.90;;;;;;5012555;28;20233;-76
2022/03/16 06:28:18;;;;;;;37.88;25.48;;;7.70;99.90;;;;;;5012243;28;20670;-76
2022/03/16 06:30:45;;;;;;;42.42;27.45;;;7.70;99.90;;;;;;5012860;28;20210;-76
2022/03/16 06:33:12;;;;;;;42.42;27.52;;;7.70;99.90;;;;;;5012794;28;20198;-75
2022/03/16 06:35:38;;;;;;;44.00;28.50;;;7.70;99.90;;;;;;5012446;28;20222;-76
2022/03/16 06:38:05;;;;;;;46.78;28.10;;;7.70;99.90;;;;;;5012335;28;20209;-76
2022/03/16 06:40:33;;;;;;;40.80;27.20;;;7.80;99.90;;;;;;5012398;28;20209;-76
2022/03/16 06:43:00;;;;;;;50.15;31.65;;;7.80;99.90;;;;;;5012560;28;20230;-76
2022/03/16 06:45:28;;;;;;;44.55;29.10;;;7.80;99.90;;;;;;5012662;28;20599;-76
2022/03/16 06:47:56;;;;;;;45.60;29.30;;;7.80;99.90;;;;;;5011855;28;20202;-76
2022/03/16 06:50:23;;;;;;;48.33;29.85;;;7.80;99.90;;;;;;5012081;28;20213;-76
2022/03/16 06:52:50;;;;;;;50.45;29.73;;;7.90;99.90;;;;;;5009699;28;20587;-76
2022/03/16 06:55:17;;;;;;;47.95;30.60;;;7.90;99.90;;;;;;5006295;28;20240;-76
2022/03/16 06:57:45;;;;;;;51.83;29.25;;;7.90;99.90;;;;;;5011696;28;20202;-76
2022/03/16 07:00:14;;;;;;;49.33;30.85;;;7.90;99.90;;;;;;5012524;28;20206;-76
2022/03/16 07:02:55;;;;;;;46.63;29.70;;;7.90;99.90;;;;;;5011958;28;20712;-76
2022/03/16 07:05:24;;;;;;;54.45;31.58;;;7.90;99.90;;;;;;5012048;28;20229;-75
2022/03/16 07:07:51;;;;;;;43.47;29.10;;;7.90;99.90;;;;;;5011772;28;20574;-76
2022/03/16 07:10:20;;;;;;;49.72;30.45;;;7.90;99.90;;;;;;5012120;28;20214;-75
2022/03/16 07:12:48;;;;;;;48.17;29.20;;;7.90;99.90;;;;;;5011948;28;20202;-76
2022/03/16 07:15:15;;;;;;;48.88;29.25;;;7.90;99.90;;;;;;5011943;28;20709;-75
2022/03/16 07:17:41;;;;;;;55.30;30.10;;;7.90;99.90;;;;;;5011190;28;20209;-76
2022/03/16 07:20:09;;;;;;;51.90;29.77;;;7.90;99.90;;;;;;5012749;28;20573;-76
2022/03/16 07:22:36;;;;;;;48.65;30.30;;;7.90;99.90;;;;;;5011918;28;20233;-76
2022/03/16 07:25:04;;;;;;;51.15;29.70;;;7.90;99.90;;;;;;5011023;28;20226;-76
2022/03/16 07:27:31;;;;;;;47.72;30.67;;;7.90;99.90;;;;;;5011426;28;20686;-76
2022/03/16 07:29:59;;;;;;;45.72;29.52;;;7.90;99.90;;;;;;5012009;28;20281;-75
2022/03/16 07:32:25;;;;;;;45.58;28.25;;;7.90;99.90;;;;;;5012080;28;20202;-75
2022/03/16 07:34:52;;;;;;;48.45;28.38;;;8.00;99.90;;;;;;5011651;28;20227;-76
2022/03/16 07:37:19;;;;;;;50.28;28.65;;;8.00;99.90;;;;;;5011401;28;20205;-76
2022/03/16 07:39:46;;;;;;;45.80;28.10;;;7.90;99.90;;;;;;5011429;28;20438;-76
2022/03/16 07:42:12;;;;;;;49.22;26.25;;;7.90;99.90;;;;;;5011424;28;20701;-76
2022/03/16 07:44:39;;;;;;;51.92;29.00;;;7.90;99.90;;;;;;5011324;28;20238;-75
2022/03/16 07:47:07;;;;;;;49.00;27.25;;;7.90;99.90;;;;;;5011157;28;20241;-76
2022/03/16 07:49:35;;;;;;;47.95;27.88;;;7.90;99.90;;;;;;5011297;28;20198;-75
2022/03/16 07:52:01;;;;;;;42.60;26.42;;;7.90;99.90;;;;;;5011641;28;20209;-76
2022/03/16 07:54:28;;;;;;;48.15;28.55;;;7.90;99.90;;;;;;5011158;28;20226;-76
2022/03/16 07:56:56;;;;;;;48.03;26.85;;;7.90;99.90;;;;;;5011125;28;20202;-76
2022/03/16 07:59:23;;;;;;;44.33;26.27;;;8.00;99.90;;;;;;5007462;28;20696;-76
2022/03/16 08:01:50;;;;;;;45.15;27.90;;;8.00;99.90;;;;;;5009700;28;20294;-75
2022/03/16 08:04:19;;;;;;;48.58;25.77;;;8.10;99.90;;;;;;5009214;28;20218;-74
2022/03/16 08:06:46;;;;;;;44.15;26.95;;;8.10;99.90;;;;;;5009054;28;20235;-74
2022/03/16 08:09:13;;;;;;;41.90;26.73;;;8.20;99.90;;;;;;5009901;28;20210;-74
2022/03/16 08:11:40;;;;;;;50.88;27.73;;;8.20;99.90;;;;;;5010451;28;20264;-74
2022/03/16 08:14:08;;;;;;;38.42;26.05;;;8.30;99.90;;;;;;5009981;28;20268;-75
2022/03/16 08:16:35;;;;;;;44.30;25.65;;;8.30;99.90;;;;;;5009462;28;20198;-74
2022/03/16 08:19:02;;;;;;;45.13;29.00;;;8.30;99.90;;;;;;5009731;28;20212;-75
2022/03/16 08:21:31;;;;;;;50.53;27.80;;;8.40;99.90;;;;;;5009224;28;20202;-74
2022/03/16 08:23:58;;;;;;;45.92;28.35;;;8.40;99.90;;;;;;5009554;28;20231;-76
2022/03/16 08:26:24;;;;;;;48.65;30.08;;;8.40;99.90;;;;;;5009467;28;20423;-76
2022/03/16 08:28:51;;;;;;;53.35;29.98;;;8.40;99.90;;;;;;5007324;28;20588;-77
2022/03/16 08:31:18;;;;;;;49.10;29.35;;;8.40;99.90;;;;;;5012374;28;20210;-77
2022/03/16 08:33:45;;;;;;;50.40;30.75;;;8.30;99.90;;;;;;5010078;28;20206;-75
2022/03/16 08:36:12;;;;;;;46.72;28.48;;;8.40;99.90;;;;;;5010127;28;20218;-76
2022/03/16 08:38:41;;;;;;;39.35;26.30;;;8.30;99.90;;;;;;5009389;28;20199;-76
2022/03/16 08:41:10;;;;;;;36.75;25.38;;;8.30;99.90;;;;;;5010386;28;20205;-76
2022/03/16 08:43:37;;;;;;;37.67;26.17;;;8.20;99.90;;;;;;5009984;28;20337;-76
2022/03/16 08:46:04;;;;;;;38.25;24.95;;;8.20;99.90;;;;;;5009634;28;20408;-76
2022/03/16 08:48:31;;;;;;;41.90;25.00;;;8.20;99.90;;;;;;5009522;28;20210;-76
2022/03/16 08:50:58;;;;;;;39.67;27.83;;;8.30;99.90;;;;;;5010289;28;20202;-76
2022/03/16 08:53:25;;;;;;;42.30;25.98;;;8.30;99.90;;;;;;5010675;28;20582;-76
2022/03/16 08:55:53;;;;;;;38.75;26.15;;;8.40;99.90;;;;;;5009993;28;20276;-76
2022/03/16 08:58:20;;;;;;;42.67;26.08;;;8.50;99.90;;;;;;5009417;28;20233;-76
2022/03/16 09:00:47;;;;;;;36.75;23.00;;;8.50;99.90;;;;;;5010103;28;20674;-76
2022/03/16 09:03:13;;;;;;;35.67;25.23;;;8.50;99.90;;;;;;5010457;28;20233;-76
2022/03/16 09:05:40;;;;;;;37.72;23.88;;;8.40;99.90;;;;;;5009625;28;20871;-76
2022/03/16 09:08:07;;;;;;;39.60;23.77;;;8.50;99.90;;;;;;5009790;28;20198;-76
2022/03/16 09:10:34;;;;;;;32.05;23.67;;;8.60;99.90;;;;;;5009728;28;20690;-76
2022/03/16 09:13:04;;;;;;;32.33;21.77;;;8.60;99.90;;;;;;5011599;28;20287;-76
2022/03/16 09:15:33;;;;;;;29.13;22.88;;;8.60;99.90;;;;;;5014104;28;20240;-76
2022/03/16 09:17:59;;;;;;;31.95;23.55;;;8.50;99.90;;;;;;5013563;28;20198;-76
2022/03/16 09:20:27;;;;;;;35.97;24.27;;;8.50;99.90;;;;;;5014008;28;20264;-76
2022/03/16 09:22:54;;;;;;;37.03;25.42;;;8.60;99.90;;;;;;5013074;28;20264;-76
2022/03/16 09:25:24;;;;;;;32.20;23.15;;;8.60;99.90;;;;;;5014113;28;20293;-76
2022/03/16 09:27:50;;;;;;;35.30;22.27;;;8.70;99.90;;;;;;5012971;28;20210;-76
2022/03/16 09:30:19;;;;;;;32.85;22.95;;;8.80;99.90;;;;;;5013090;28;20206;-76
2022/03/16 09:32:45;;;;;;;34.47;23.23;;;8.70;99.90;;;;;;5012261;28;20670;-75
2022/03/16 09:35:12;;;;;;;30.90;21.88;;;8.70;99.90;;;;;;5012354;28;20237;-76
2022/03/16 09:37:40;;;;;;;34.78;23.65;;;8.70;99.90;;;;;;5012730;28;20638;-76
2022/03/16 09:40:08;;;;;;;36.28;22.02;;;8.70;99.90;;;;;;5013503;28;20202;-75
2022/03/16 09:42:35;;;;;;;29.33;22.33;;;8.70;99.90;;;;;;5013112;28;20241;-76
2022/03/16 09:45:02;;;;;;;28.27;21.55;;;8.80;99.90;;;;;;5013376;28;20241;-75
2022/03/16 09:47:31;;;;;;;28.80;21.90;;;8.80;99.90;;;;;;5012480;28;20198;-76
2022/03/16 09:49:59;;;;;;;29.40;21.10;;;8.80;99.90;;;;;;5013056;28;20226;-76
2022/03/16 09:52:26;;;;;;;27.95;19.70;;;8.80;99.90;;;;;;5010502;28;20198;-76
2022/03/16 09:54:53;;;;;;;27.55;19.00;;;8.70;99.90;;;;;;5012663;28;20226;-76
2022/03/16 09:57:20;;;;;;;24.75;19.02;;;8.70;99.90;;;;;;5011262;28;20202;-76
2022/03/16 09:59:47;;;;;;;28.83;19.27;;;8.70;99.90;;;;;;5012091;28;20229;-75
2022/03/16 10:02:17;;;;;;;24.77;17.67;;;8.70;99.90;;;;;;5012155;28;20209;-76
2022/03/16 10:04:48;;;;;;;23.85;17.73;;;8.70;99.90;;;;;;5013133;28;20226;-76
2022/03/16 10:07:15;;;;;;;29.13;18.25;;;8.80;99.90;;;;;;5011598;28;20202;-76
2022/03/16 10:15:13;;;;;;;24.63;17.30;;;9.00;99.90;;;;;;5012453;28;20229;-72
2022/03/16 10:17:46;;;;;;;23.95;18.50;;;9.00;99.90;;;;;;5012390;28;20202;-72
2022/03/16 10:20:30;;;;;;;27.83;19.25;;;9.00;99.90;;;;;;5012440;28;20202;-72
2022/03/16 10:22:59;;;;;;;24.33;16.92;;;9.20;99.90;;;;;;5012879;28;20226;-73
2022/03/16 10:25:27;;;;;;;24.08;18.40;;;9.30;99.90;;;;;;5011605;28;20232;-72
2022/03/16 10:28:08;;;;;;;27.10;17.45;;;9.20;99.90;;;;;;5012204;28;20210;-73
2022/03/16 10:30:35;;;;;;;21.95;16.67;;;9.30;99.90;;;;;;5012794;28;20649;-72
2022/03/16 10:33:01;;;;;;;24.90;16.35;;;9.40;99.90;;;;;;5012594;28;20341;-73
2022/03/16 10:35:29;;;;;;;23.48;16.98;;;9.40;99.90;;;;;;5012768;28;20222;-73
2022/03/16 10:38:08;;;;;;;24.58;17.67;;;9.40;99.90;;;;;;5011920;28;20203;-72
2022/03/16 10:40:35;;;;;;;25.73;18.48;;;9.40;99.90;;;;;;5012581;28;20201;-72
2022/03/16 10:49:03;;;;;;;24.52;17.33;;;10.30;99.90;;;;;;5010699;28;20716;-72
2022/03/16 10:51:32;;;;;;;20.35;16.33;;;10.70;99.90;;;;;;5011925;28;20226;-72
2022/03/16 10:54:00;;;;;;;21.92;16.73;;;10.90;99.90;;;;;;5012188;28;20210;-72
2022/03/16 10:56:29;;;;;;;20.35;15.85;;;11.10;99.90;;;;;;5012011;28;20210;-72
2022/03/16 10:58:57;;;;;;;19.98;16.30;;;11.10;99.90;;;;;;5011492;28;20304;-72
2022/03/16 11:01:25;;;;;;;25.70;16.95;;;11.20;99.90;;;;;;5011766;28;20230;-72
2022/03/16 11:03:55;;;;;;;21.77;16.65;;;11.10;99.90;;;;;;5011769;28;20713;-72
2022/03/16 11:06:22;;;;;;;20.50;15.52;;;11.10;99.90;;;;;;5011825;28;20215;-72
2022/03/16 11:08:51;;;;;;;19.55;15.82;;;11.20;99.90;;;;;;5011699;28;20215;-72
2022/03/16 11:14:04;;;;;;;18.77;15.35;;;11.90;99.90;;;;;;5011957;28;20295;-72
2022/03/16 11:16:31;;;;;;;20.23;16.17;;;12.30;99.90;;;;;;5011734;28;20213;-72
2022/03/16 11:19:01;;;;;;;19.88;15.95;;;12.50;99.90;;;;;;5011150;28;20214;-72
2022/03/16 11:21:31;;;;;;;19.00;16.75;;;12.60;99.90;;;;;;5011448;28;20207;-72
2022/03/16 11:24:18;;;;;;;18.87;15.53;;;12.80;99.90;;;;;;5011615;28;20222;-72
2022/03/16 11:27:02;;;;;;;18.80;16.63;;;13.10;99.90;;;;;;5010812;28;20872;-72
2022/03/16 11:29:38;;;;;;;18.40;16.10;;;13.30;99.90;;;;;;5011794;28;20961;-71
2022/03/16 11:32:12;;;;;;;20.07;15.83;;;13.40;99.90;;;;;;5009731;28;20475;-71
2022/03/16 11:34:39;;;;;;;18.60;16.47;;;13.40;99.90;;;;;;5011575;28;20484;-72
2022/03/16 11:37:09;;;;;;;19.20;16.60;;;13.20;99.90;;;;;;5010733;28;20468;-72
2022/03/16 11:39:45;;;;;;;18.30;15.57;;;12.90;99.90;;;;;;5011840;28;20457;-72
2022/03/16 11:42:16;;;;;;;18.20;15.80;;;12.80;99.90;;;;;;5011259;28;20964;-72
2022/03/16 11:44:42;;;;;;;17.45;15.65;;;12.70;99.90;;;;;;5011361;28;20493;-72
2022/03/16 11:47:35;;;;;;;19.17;14.83;;;12.70;99.90;;;;;;5010565;28;20203;-72
2022/03/16 11:50:21;;;;;;;17.00;14.37;;;13.00;99.90;;;;;;5011081;28;20487;-72
2022/03/16 11:53:04;;;;;;;19.03;15.87;;;13.20;99.90;;;;;;5011353;28;20464;-72
2022/03/16 11:55:50;;;;;;;19.57;15.57;;;13.30;99.90;;;;;;5010907;28;21012;-72
2022/03/16 11:58:31;;;;;;;15.87;13.57;;;13.50;99.90;;;;;;5010474;28;20461;-72
2022/03/16 12:01:25;;;;;;;16.07;14.37;;;14.10;99.90;;;;;;5011092;28;20560;-73
2022/03/16 12:04:08;;;;;;;17.70;14.27;;;13.90;99.90;;;;;;5011065;28;20477;-74
2022/03/16 12:06:53;;;;;;;15.60;13.40;;;13.80;99.90;;;;;;5010541;28;20456;-72
2022/03/16 12:09:30;;;;;;;16.27;14.40;;;13.60;99.90;;;;;;5010754;28;20465;-72
2022/03/16 12:14:59;;;;;;;16.17;14.03;;;13.40;99.90;;;;;;5011034;28;20600;-72
2022/03/16 12:17:25;;;;;;;16.17;13.83;;;13.10;99.90;;;;;;5010144;28;20478;-72
2022/03/16 12:20:16;;;;;;;16.63;13.10;;;12.80;99.90;;;;;;5011052;28;20501;-72
2022/03/16 12:22:46;;;;;;;20.30;15.00;;;12.70;99.90;;;;;;4991560;28;20932;-72
2022/03/16 12:25:30;;;;;;;16.30;14.20;;;12.50;99.90;;;;;;5010447;28;20520;-72
2022/03/16 12:30:46;;;;;;;14.88;13.32;;;12.40;99.90;;;;;;4991207;28;20485;-72
2022/03/16 12:33:19;;;;;;;17.27;14.90;;;12.50;99.90;;;;;;4990701;28;20210;-72
2022/03/16 12:35:47;;;;;;;16.50;14.73;;;12.40;99.90;;;;;;4991395;28;20497;-72
2022/03/16 12:38:14;;;;;;;17.83;14.90;;;12.40;99.90;;;;;;4990225;28;20836;-72
2022/03/16 12:42:31;;;;;;;17.87;15.90;;;12.30;99.90;;;;;;4991329;28;20509;-72
2022/03/16 12:43:30;;;;;;;17.40;14.80;;;12.50;99.90;;;;;;4990707;28;20473;-72
2022/03/16 12:46:03;;;;;;;15.60;13.93;;;12.50;99.90;;;;;;4991056;28;20227;-72
2022/03/16 12:48:34;;;;;;;15.77;14.10;;;12.60;99.90;;;;;;4992669;28;20465;-72
2022/03/16 12:51:01;;;;;;;16.80;14.43;;;12.50;99.90;;;;;;4994940;28;20557;-72
2022/03/16 12:53:44;;;;;;;20.43;15.40;;;12.50;99.90;;;;;;4995106;28;21236;-72
2022/03/16 12:56:16;;;;;;;17.90;15.70;;;12.40;99.90;;;;;;4994614;28;20489;-72
2022/03/16 12:58:52;;;;;;;19.13;16.20;;;12.40;99.90;;;;;;4994498;28;20976;-72
2022/03/16 13:01:19;;;;;;;16.30;14.43;;;12.40;99.90;;;;;;4995222;28;21003;-72
2022/03/16 13:03:46;;;;;;;17.60;15.10;;;12.40;99.90;;;;;;4994846;28;20486;-72